Time;durP1;ratioP1;P1;durP2;ratioP2;P2;SDS_P1;SDS_P2;PMS_P1;PMS_P2;Temp;Humidity;BMP_temperature;BMP_pressure;BME280_temperature;BME280_humidity;BME280_pressure;Samples;Min_cycle;Max_cycle;Signal;HPM_P1;HPM_P2
2024/02/18 00:01:07;;;;;;;9.15;7.80;;;;;;;;;;4921603;29;20256;-88
2024/02/18 00:03:33;;;;;;;8.30;6.53;;;8.20;99.90;;;;;;4921316;29;20206;-86
2024/02/18 00:05:59;;;;;;;7.90;7.10;;;;;;;;;;4922143;29;20296;-88
2024/02/18 00:08:24;;;;;;;8.80;6.70;;;8.00;99.90;;;;;;4924445;29;20189;-86
2024/02/18 00:10:50;;;;;;;9.40;6.77;;;10.30;99.90;;;;;;4920966;29;20185;-86
2024/02/18 00:13:16;;;;;;;7.50;6.50;;;8.20;99.90;;;;;;4923826;29;20213;-87
2024/02/18 00:15:41;;;;;;;7.70;6.30;;;6.90;99.90;;;;;;4922282;29;20228;-86
2024/02/18 00:18:07;;;;;;;8.80;7.83;;;;;;;;;;4922277;29;20217;-86
2024/02/18 00:20:33;;;;;;;7.55;6.60;;;8.20;99.90;;;;;;4939757;29;20677;-87
2024/02/18 00:22:58;;;;;;;9.40;6.90;;;7.10;99.90;;;;;;4920644;29;20211;-88
2024/02/18 00:25:24;;;;;;;10.10;7.00;;;;;;;;;;4922145;29;20277;-86
2024/02/18 00:27:50;;;;;;;7.70;6.85;;;;;;;;;;4938614;29;20188;-87
2024/02/18 00:30:16;;;;;;;9.23;6.25;;;8.10;99.90;;;;;;4937481;29;20186;-87
2024/02/18 00:32:43;;;;;;;7.73;6.93;;;;;;;;;;4939906;29;20201;-88
2024/02/18 00:35:08;;;;;;;9.32;6.93;;;8.20;99.90;;;;;;4923068;29;20201;-87
2024/02/18 00:37:36;;;;;;;8.07;6.53;;;;;;;;;;4922615;29;20228;-87
2024/02/18 00:40:03;;;;;;;8.48;6.40;;;8.50;99.90;;;;;;4936612;29;20201;-86
2024/02/18 00:42:28;;;;;;;7.72;6.53;;;9.70;99.90;;;;;;4922359;29;20194;-87
2024/02/18 00:44:54;;;;;;;8.33;6.37;;;;;;;;;;4920999;29;20218;-86
2024/02/18 00:47:20;;;;;;;7.15;6.43;;;;;;;;;;4924650;29;20182;-87
2024/02/18 00:49:46;;;;;;;6.20;5.63;;;8.80;99.90;;;;;;4934641;29;20178;-87
2024/02/18 00:52:12;;;;;;;8.60;6.10;;;7.80;99.90;;;;;;4921501;29;20461;-88
2024/02/18 00:54:38;;;;;;;8.20;6.85;;;8.40;99.90;;;;;;4919759;29;20190;-88
2024/02/18 00:57:04;;;;;;;8.13;7.30;;;7.90;99.90;;;;;;4918175;29;20224;-86
2024/02/18 00:59:32;;;;;;;6.87;6.17;;;8.70;99.90;;;;;;4920207;29;20289;-88
2024/02/18 01:01:58;;;;;;;6.80;5.85;;;;;;;;;;4920013;29;20853;-87
2024/02/18 01:04:24;;;;;;;5.93;5.40;;;8.70;99.90;;;;;;4945119;29;20218;-85
2024/02/18 01:06:50;;;;;;;6.43;5.63;;;9.80;99.90;;;;;;4930696;29;20201;-85
2024/02/18 01:09:16;;;;;;;9.57;5.73;;;;;;;;;;4923143;29;20266;-85
2024/02/18 01:11:41;;;;;;;7.07;6.27;;;8.40;99.90;;;;;;4918986;29;20186;-85
2024/02/18 01:14:07;;;;;;;7.33;6.63;;;9.00;99.90;;;;;;4919417;29;20469;-85
2024/02/18 01:16:33;;;;;;;7.17;6.40;;;;;;;;;;4921505;29;20404;-85
2024/02/18 01:18:58;;;;;;;6.63;5.93;;;8.80;99.90;;;;;;4936340;29;20384;-84
2024/02/18 01:21:24;;;;;;;7.20;6.03;;;;;;;;;;4919022;29;20794;-86
2024/02/18 01:23:50;;;;;;;9.03;6.00;;;8.50;99.90;;;;;;4934675;29;20241;-84
2024/02/18 01:26:16;;;;;;;6.50;5.63;;;9.60;99.90;;;;;;4922072;29;20451;-85
2024/02/18 01:28:42;;;;;;;7.07;6.37;;;7.80;99.90;;;;;;4922344;29;20187;-82
2024/02/18 01:31:07;;;;;;;7.43;5.93;;;9.10;99.90;;;;;;4936597;29;20421;-86
2024/02/18 01:33:33;;;;;;;6.57;5.97;;;;;;;;;;4931531;29;21002;-85
2024/02/18 01:35:59;;;;;;;7.32;6.43;;;8.70;99.90;;;;;;4937475;29;20217;-86
2024/02/18 01:38:25;;;;;;;6.80;5.93;;;;;;;;;;4920812;29;20194;-86
2024/02/18 01:40:51;;;;;;;6.15;5.55;;;8.50;99.90;;;;;;4935952;29;20190;-84
2024/02/18 01:43:17;;;;;;;6.93;5.33;;;9.40;99.90;;;;;;4919751;29;20224;-84
2024/02/18 01:45:47;;;;;;;8.45;6.20;;;8.50;99.90;;;;;;4919254;29;20277;-85
2024/02/18 01:48:14;;;;;;;6.68;5.90;;;8.30;99.90;;;;;;4909096;29;20190;-84
2024/02/18 01:50:40;;;;;;;6.35;5.50;;;7.10;99.90;;;;;;4920845;29;20200;-85
2024/02/18 01:53:06;;;;;;;7.00;6.30;;;8.50;99.90;;;;;;4922117;29;20289;-84
2024/02/18 01:55:32;;;;;;;6.50;5.90;;;8.40;99.90;;;;;;4941279;29;21161;-84
2024/02/18 01:57:59;;;;;;;5.90;5.40;;;8.60;99.90;;;;;;4921371;29;20194;-83
2024/02/18 02:00:26;;;;;;;7.13;6.28;;;7.80;99.90;;;;;;4936199;29;20226;-85
2024/02/18 02:02:53;;;;;;;8.33;5.73;;;8.60;99.90;;;;;;4937920;29;20205;-85
2024/02/18 02:05:20;;;;;;;7.65;5.50;;;8.80;99.90;;;;;;4918983;29;20508;-85
2024/02/18 02:07:49;;;;;;;6.53;5.60;;;8.50;99.90;;;;;;4938508;29;20179;-86
2024/02/18 02:10:15;;;;;;;7.63;5.63;;;8.70;99.90;;;;;;4920865;29;20276;-85
2024/02/18 02:12:44;;;;;;;7.88;6.43;;;8.50;99.90;;;;;;4919356;29;20190;-84
2024/02/18 02:15:10;;;;;;;7.40;6.20;;;8.00;99.90;;;;;;4918101;29;20217;-85
2024/02/18 02:17:39;;;;;;;6.00;5.43;;;8.30;99.90;;;;;;4924329;29;20194;-85
2024/02/18 02:20:11;;;;;;;8.65;6.07;;;8.60;99.90;;;;;;4921449;29;20194;-85
2024/02/18 02:22:37;;;;;;;8.00;6.75;;;8.40;99.90;;;;;;4921483;29;20186;-85
2024/02/18 02:25:04;;;;;;;8.43;7.03;;;8.80;99.90;;;;;;4922336;29;20240;-85
2024/02/18 02:27:34;;;;;;;8.18;6.22;;;8.80;99.90;;;;;;4922239;29;20181;-84
2024/02/18 02:30:04;;;;;;;6.78;5.95;;;8.90;99.90;;;;;;4921025;29;20664;-84
2024/02/18 02:32:31;;;;;;;9.27;6.20;;;8.80;99.90;;;;;;4919318;29;20191;-85
2024/02/18 02:34:58;;;;;;;7.40;6.53;;;8.40;99.90;;;;;;4921939;29;20237;-85
2024/02/18 02:37:23;;;;;;;6.75;5.68;;;8.20;99.90;;;;;;4924868;29;20252;-85
2024/02/18 02:39:50;;;;;;;7.93;5.93;;;8.60;99.90;;;;;;4935922;29;20246;-85
2024/02/18 02:42:17;;;;;;;6.85;5.97;;;8.50;99.90;;;;;;4924513;29;20186;-86
2024/02/18 02:44:42;;;;;;;6.88;6.28;;;8.90;99.90;;;;;;4921375;29;20206;-85
2024/02/18 02:47:08;;;;;;;7.73;6.00;;;8.40;99.90;;;;;;4919115;29;20194;-86
2024/02/18 02:49:33;;;;;;;11.03;5.87;;;8.70;99.90;;;;;;4921557;29;20189;-85
2024/02/18 02:51:59;;;;;;;6.10;5.37;;;8.50;99.90;;;;;;4919501;29;20257;-85
2024/02/18 02:54:25;;;;;;;7.70;5.80;;;7.90;99.90;;;;;;4919921;29;20214;-87
2024/02/18 02:56:51;;;;;;;7.30;6.60;;;8.30;99.90;;;;;;4919417;29;20205;-85
2024/02/18 02:59:16;;;;;;;6.90;6.20;;;8.10;99.90;;;;;;4915576;29;20186;-85
2024/02/18 03:01:42;;;;;;;8.47;6.13;;;8.30;99.90;;;;;;4938727;29;20259;-85
2024/02/18 03:04:08;;;;;;;8.70;5.53;;;8.60;99.90;;;;;;4919824;29;20228;-85
2024/02/18 03:06:35;;;;;;;7.70;6.70;;;8.20;99.90;;;;;;4920294;29;20214;-86
2024/02/18 03:09:00;;;;;;;8.05;5.35;;;8.50;99.90;;;;;;4921393;29;20197;-86
2024/02/18 03:11:26;;;;;;;10.10;6.80;;;7.90;99.90;;;;;;4919440;29;20520;-85
2024/02/18 03:13:54;;;;;;;7.73;6.83;;;7.80;99.90;;;;;;4921390;29;21049;-85
2024/02/18 03:16:27;;;;;;;9.20;8.27;;;7.70;99.90;;;;;;4921909;29;20220;-86
2024/02/18 03:18:53;;;;;;;10.63;6.70;;;8.00;99.90;;;;;;4930099;29;20192;-86
2024/02/18 03:21:22;;;;;;;8.20;7.07;;;8.30;99.90;;;;;;4924502;29;20183;-84
2024/02/18 03:23:48;;;;;;;9.75;8.38;;;8.20;99.90;;;;;;4923683;29;20842;-86
2024/02/18 03:26:14;;;;;;;11.07;8.05;;;8.00;99.90;;;;;;4927058;29;20201;-86
2024/02/18 03:28:40;;;;;;;10.43;7.60;;;;;;;;;;4928372;29;20282;-86
2024/02/18 03:31:06;;;;;;;10.50;7.28;;;;;;;;;;4944606;29;20647;-85
2024/02/18 03:33:31;;;;;;;9.32;6.45;;;7.70;99.90;;;;;;4925154;29;20555;-85
2024/02/18 03:35:57;;;;;;;6.60;5.90;;;7.90;99.90;;;;;;4947527;29;20296;-86
2024/02/18 03:38:23;;;;;;;7.67;6.93;;;8.20;99.90;;;;;;4938187;29;20232;-86
2024/02/18 03:40:49;;;;;;;7.70;6.90;;;;;;;;;;4924557;29;20540;-84
2024/02/18 03:43:15;;;;;;;7.45;6.15;;;7.60;99.90;;;;;;4923074;29;20209;-86
2024/02/18 03:45:40;;;;;;;8.00;6.20;;;7.90;99.90;;;;;;4922295;29;20206;-85
2024/02/18 03:48:07;;;;;;;6.80;6.10;;;;;;;;;;4939538;29;20185;-87
2024/02/18 03:50:36;;;;;;;7.65;6.55;;;7.70;99.90;;;;;;4923479;29;20194;-85
2024/02/18 03:53:04;;;;;;;8.80;7.07;;;;;;;;;;4940145;29;20189;-86
2024/02/18 03:55:30;;;;;;;7.15;5.95;;;7.70;99.90;;;;;;4923195;29;20220;-85
2024/02/18 03:57:56;;;;;;;7.75;6.50;;;;;;;;;;4913727;29;20221;-86
2024/02/18 04:00:22;;;;;;;8.05;7.25;;;7.60;99.90;;;;;;4935822;29;20186;-85
2024/02/18 04:02:48;;;;;;;7.53;6.73;;;7.80;99.90;;;;;;4930621;29;20248;-86
2024/02/18 04:05:13;;;;;;;9.53;7.00;;;7.70;99.90;;;;;;4932367;23;20256;-86
2024/02/18 04:07:40;;;;;;;11.87;7.60;;;8.70;99.90;;;;;;4941370;29;20221;-85
2024/02/18 04:10:08;;;;;;;8.27;7.47;;;8.00;99.90;;;;;;4938581;29;20198;-84
2024/02/18 04:12:34;;;;;;;8.20;7.40;;;7.60;99.90;;;;;;4941662;29;20185;-85
2024/02/18 04:15:00;;;;;;;11.77;8.25;;;7.50;99.90;;;;;;4916958;29;20306;-86
2024/02/18 04:17:25;;;;;;;9.87;7.80;;;7.70;99.90;;;;;;4916714;29;20240;-85
2024/02/18 04:19:51;;;;;;;10.07;7.67;;;7.70;99.90;;;;;;4920325;29;20197;-86
2024/02/18 04:22:18;;;;;;;9.30;8.35;;;;;;;;;;4920575;29;20265;-84
2024/02/18 04:24:44;;;;;;;11.18;8.23;;;7.80;99.90;;;;;;4920140;29;20273;-85
2024/02/18 04:27:10;;;;;;;9.13;8.25;;;;;;;;;;4920452;29;20308;-85
2024/02/18 04:29:37;;;;;;;8.68;7.78;;;7.70;99.90;;;;;;4935354;23;20186;-86
2024/02/18 04:32:03;;;;;;;8.95;8.15;;;7.80;99.90;;;;;;4922780;28;20697;-86
2024/02/18 04:34:30;;;;;;;8.68;7.78;;;7.50;99.90;;;;;;4959683;28;20576;-86
2024/02/18 04:36:56;;;;;;;8.97;8.07;;;7.60;99.90;;;;;;4958639;28;20219;-86
2024/02/18 04:39:22;;;;;;;9.35;8.45;;;7.50;99.90;;;;;;4957702;28;20196;-86
2024/02/18 04:41:48;;;;;;;10.97;9.10;;;7.40;99.90;;;;;;4940913;29;20192;-86
2024/02/18 04:44:15;;;;;;;12.77;9.17;;;7.80;99.90;;;;;;4941980;28;20201;-86
2024/02/18 04:46:40;;;;;;;12.07;8.43;;;7.40;99.90;;;;;;4945414;28;20205;-86
2024/02/18 04:49:06;;;;;;;10.00;9.00;;;7.30;99.90;;;;;;4945189;28;20721;-86
2024/02/18 04:51:32;;;;;;;9.10;8.07;;;7.40;99.90;;;;;;4948618;28;20192;-86
2024/02/18 04:53:58;;;;;;;11.13;8.07;;;7.50;99.90;;;;;;4944278;28;20480;-86
2024/02/18 04:56:24;;;;;;;12.13;8.83;;;7.30;99.90;;;;;;4960663;28;20231;-86
2024/02/18 04:58:49;;;;;;;10.57;8.73;;;7.40;99.90;;;;;;4937377;29;20193;-86
2024/02/18 05:01:15;;;;;;;10.37;8.10;;;7.40;99.90;;;;;;4943863;28;20242;-85
2024/02/18 05:03:41;;;;;;;9.03;8.10;;;7.50;99.90;;;;;;4937642;29;20197;-85
2024/02/18 05:06:11;;;;;;;9.47;7.80;;;7.30;99.90;;;;;;4941699;28;20487;-86
2024/02/18 05:08:38;;;;;;;9.80;8.70;;;7.40;99.90;;;;;;4925701;28;20778;-84
2024/02/18 05:11:04;;;;;;;10.90;8.95;;;7.00;99.90;;;;;;4956550;28;20193;-84
2024/02/18 05:13:31;;;;;;;9.23;8.10;;;7.10;99.90;;;;;;4940723;28;20190;-85
2024/02/18 05:15:58;;;;;;;9.88;8.73;;;7.10;99.90;;;;;;4923361;28;21020;-85
2024/02/18 05:18:24;;;;;;;10.68;8.38;;;7.10;99.90;;;;;;4956938;28;20196;-85
2024/02/18 05:20:50;;;;;;;12.68;9.25;;;6.80;99.90;;;;;;4939659;29;20210;-85
2024/02/18 05:23:17;;;;;;;13.10;10.20;;;7.10;99.90;;;;;;4939416;28;20202;-85
2024/02/18 05:25:44;;;;;;;10.48;8.98;;;6.60;99.90;;;;;;4959130;28;20201;-85
2024/02/18 05:28:10;;;;;;;10.30;9.10;;;6.90;99.90;;;;;;4957168;28;20193;-85
2024/02/18 05:30:36;;;;;;;9.80;8.80;;;6.90;99.90;;;;;;4947916;28;20212;-85
2024/02/18 05:33:02;;;;;;;11.20;8.87;;;6.80;99.90;;;;;;4958229;28;20207;-85
2024/02/18 05:35:29;;;;;;;10.40;8.45;;;6.80;99.90;;;;;;4960889;28;20205;-85
2024/02/18 05:37:54;;;;;;;9.17;8.30;;;6.50;99.90;;;;;;4922843;28;20276;-85
2024/02/18 05:40:20;;;;;;;10.63;8.27;;;7.20;99.90;;;;;;4940939;28;20192;-85
2024/02/18 05:42:45;;;;;;;9.70;8.57;;;7.10;99.90;;;;;;4957637;28;20200;-85
2024/02/18 05:45:11;;;;;;;9.50;8.50;;;6.80;99.90;;;;;;4943854;28;20227;-85
2024/02/18 05:47:37;;;;;;;10.40;8.40;;;6.80;99.90;;;;;;4942746;28;20559;-85
2024/02/18 05:50:03;;;;;;;9.40;8.40;;;6.80;99.90;;;;;;4961161;28;20208;-85
2024/02/18 05:52:29;;;;;;;9.60;8.60;;;6.80;99.90;;;;;;4959127;28;20467;-85
2024/02/18 05:54:54;;;;;;;11.47;8.10;;;6.30;99.90;;;;;;4947232;28;20585;-85
2024/02/18 05:57:20;;;;;;;12.10;9.00;;;6.70;99.90;;;;;;4924068;28;20201;-85
2024/02/18 05:59:45;;;;;;;11.33;9.00;;;6.60;99.90;;;;;;4942470;29;20208;-85
2024/02/18 06:02:11;;;;;;;11.33;10.07;;;6.50;99.90;;;;;;4943342;29;20200;-84
2024/02/18 06:04:37;;;;;;;10.57;9.50;;;6.40;99.90;;;;;;4951505;28;20220;-85
2024/02/18 06:07:02;;;;;;;12.33;9.90;;;6.50;99.90;;;;;;4958311;28;20260;-85
2024/02/18 06:09:28;;;;;;;10.93;9.27;;;6.20;99.90;;;;;;4953794;28;20273;-84
2024/02/18 06:11:53;;;;;;;13.40;9.50;;;6.20;99.90;;;;;;4952570;29;20637;-85
2024/02/18 06:14:20;;;;;;;14.73;11.07;;;6.20;99.90;;;;;;4947418;28;20535;-83
2024/02/18 06:16:45;;;;;;;12.20;10.65;;;6.10;99.90;;;;;;4948645;28;20219;-84
2024/02/18 06:19:11;;;;;;;11.87;10.00;;;6.20;99.90;;;;;;4943674;28;20193;-85
2024/02/18 06:21:36;;;;;;;11.77;9.47;;;6.10;99.90;;;;;;4941738;28;20196;-85
2024/02/18 06:24:02;;;;;;;11.43;10.30;;;6.60;99.90;;;;;;4939949;29;20252;-85
2024/02/18 06:26:28;;;;;;;14.53;10.00;;;6.40;99.90;;;;;;4944858;28;20232;-85
2024/02/18 06:28:57;;;;;;;13.50;10.07;;;6.50;99.90;;;;;;4939810;29;20565;-83
2024/02/18 06:31:22;;;;;;;11.75;10.10;;;6.60;99.90;;;;;;4941390;28;21111;-83
2024/02/18 06:33:48;;;;;;;11.53;10.33;;;6.10;99.90;;;;;;4943770;29;20210;-83
2024/02/18 06:36:15;;;;;;;11.50;10.17;;;6.60;99.90;;;;;;4944487;28;20725;-85
2024/02/18 06:38:44;;;;;;;15.02;10.30;;;6.20;99.90;;;;;;4942297;28;20449;-84
2024/02/18 06:41:10;;;;;;;11.45;10.25;;;6.50;99.90;;;;;;4942289;28;20542;-84
2024/02/18 06:43:36;;;;;;;10.05;9.00;;;6.90;99.90;;;;;;4942432;28;20296;-83
2024/02/18 06:46:03;;;;;;;12.15;9.75;;;6.20;99.90;;;;;;4938994;28;20205;-84
2024/02/18 06:48:30;;;;;;;11.57;9.90;;;6.30;99.90;;;;;;4949057;28;20551;-84
2024/02/18 06:50:56;;;;;;;11.95;10.05;;;6.90;99.90;;;;;;4947863;28;20212;-84
2024/02/18 06:53:21;;;;;;;10.23;9.20;;;6.60;99.90;;;;;;4951517;28;20196;-84
2024/02/18 06:55:47;;;;;;;11.20;10.10;;;6.60;99.90;;;;;;4951554;29;20579;-84
2024/02/18 06:58:14;;;;;;;10.00;9.00;;;6.80;99.90;;;;;;4945856;29;20193;-85
2024/02/18 07:00:40;;;;;;;11.48;10.27;;;6.90;99.90;;;;;;4947411;28;20199;-84
2024/02/18 07:03:06;;;;;;;12.02;10.82;;;7.20;99.90;;;;;;4952423;28;20215;-84
2024/02/18 07:05:32;;;;;;;13.20;10.77;;;7.10;99.90;;;;;;4949719;28;20201;-84
2024/02/18 07:07:58;;;;;;;11.10;9.95;;;7.00;99.90;;;;;;4957881;28;20282;-85
2024/02/18 07:10:23;;;;;;;10.20;9.20;;;6.90;99.90;;;;;;4953496;28;20188;-85
2024/02/18 07:12:49;;;;;;;9.90;8.60;;;7.30;99.90;;;;;;4963466;28;20500;-85
2024/02/18 07:15:16;;;;;;;12.70;9.47;;;7.40;99.90;;;;;;4948412;28;20205;-85
2024/02/18 07:17:41;;;;;;;9.02;8.18;;;7.30;99.90;;;;;;4943341;28;20192;-85
2024/02/18 07:20:08;;;;;;;10.70;9.53;;;7.20;99.90;;;;;;4945328;28;20565;-86
2024/02/18 07:22:35;;;;;;;9.25;8.35;;;7.70;99.90;;;;;;4941837;28;20199;-86
2024/02/18 07:25:00;;;;;;;10.90;8.75;;;7.90;99.90;;;;;;4942423;28;20208;-86
2024/02/18 07:27:26;;;;;;;10.40;9.40;;;7.40;99.90;;;;;;4929351;28;20196;-86
2024/02/18 07:29:52;;;;;;;11.97;9.20;;;7.40;99.90;;;;;;4940811;28;20424;-85
2024/02/18 07:32:18;;;;;;;12.50;9.05;;;7.90;99.90;;;;;;4956378;28;20184;-86
2024/02/18 07:34:43;;;;;;;13.33;9.60;;;7.60;99.90;;;;;;4944650;28;20275;-86
2024/02/18 07:37:10;;;;;;;9.20;8.30;;;7.50;99.90;;;;;;4941975;29;20212;-86
2024/02/18 07:39:36;;;;;;;10.15;9.15;;;7.60;99.90;;;;;;4967797;28;20181;-85
2024/02/18 07:42:02;;;;;;;10.73;9.57;;;7.70;99.90;;;;;;4955209;28;20679;-85
2024/02/18 07:44:28;;;;;;;12.73;9.87;;;7.70;99.90;;;;;;4943072;28;20360;-86
2024/02/18 07:46:54;;;;;;;10.97;9.83;;;7.70;99.90;;;;;;4943128;29;20217;-86
2024/02/18 07:49:22;;;;;;;12.82;10.32;;;7.80;99.90;;;;;;4945329;28;20430;-86
2024/02/18 07:51:48;;;;;;;12.25;10.13;;;7.90;99.90;;;;;;4943020;28;20268;-86
2024/02/18 07:54:14;;;;;;;10.95;9.43;;;;;;;;;;4940658;29;20222;-86
2024/02/18 07:56:44;;;;;;;12.02;10.75;;;8.30;99.90;;;;;;4957337;28;20208;-86
2024/02/18 07:59:10;;;;;;;13.00;10.80;;;8.00;99.90;;;;;;4938883;28;20293;-86
2024/02/18 08:01:36;;;;;;;11.25;10.05;;;8.30;99.90;;;;;;4936083;28;20252;-86
2024/02/18 08:04:01;;;;;;;11.73;10.50;;;8.30;99.90;;;;;;4943861;28;20357;-86
2024/02/18 08:06:29;;;;;;;13.80;10.60;;;8.80;99.90;;;;;;4940313;28;20202;-86
2024/02/18 08:08:55;;;;;;;12.40;10.77;;;9.00;99.90;;;;;;4938993;28;20339;-84
2024/02/18 08:11:21;;;;;;;14.63;11.38;;;9.70;99.90;;;;;;4941847;28;20271;-86
2024/02/18 08:13:49;;;;;;;13.67;11.00;;;8.90;99.90;;;;;;4937928;28;20222;-85
2024/02/18 08:16:14;;;;;;;11.55;10.35;;;9.00;99.90;;;;;;4936914;29;20304;-87
2024/02/18 08:18:50;;;;;;;14.77;11.33;;;9.30;99.90;;;;;;4938577;28;20225;-84
2024/02/18 08:21:18;;;;;;;12.45;10.40;;;9.60;99.90;;;;;;4941933;29;20236;-86
2024/02/18 08:23:44;;;;;;;14.35;11.07;;;9.80;99.90;;;;;;4939204;28;20206;-86
2024/02/18 08:26:25;;;;;;;11.00;10.00;;;10.70;99.90;;;;;;4946836;28;20219;-86
2024/02/18 08:28:52;;;;;;;13.02;11.57;;;9.50;99.90;;;;;;4948831;29;20184;-84
2024/02/18 08:31:18;;;;;;;12.30;10.52;;;10.10;99.90;;;;;;4928095;29;20240;-86
2024/02/18 08:33:45;;;;;;;11.10;9.88;;;9.50;99.90;;;;;;4939170;29;20186;-84
2024/02/18 08:36:11;;;;;;;11.75;10.65;;;11.70;99.90;;;;;;4934500;29;20219;-85
2024/02/18 08:38:38;;;;;;;12.10;10.80;;;10.00;99.90;;;;;;4940192;28;20221;-85
2024/02/18 08:41:04;;;;;;;11.95;10.43;;;10.00;99.90;;;;;;4948931;28;20191;-85
2024/02/18 08:43:29;;;;;;;13.43;12.07;;;10.80;99.90;;;;;;4951809;28;20215;-85
2024/02/18 08:45:55;;;;;;;11.17;9.97;;;10.80;99.90;;;;;;4953273;28;20224;-85
2024/02/18 08:48:20;;;;;;;12.60;10.53;;;13.60;99.90;;;;;;4949198;28;20181;-85
2024/02/18 08:50:46;;;;;;;11.83;10.70;;;12.00;99.90;;;;;;4939618;28;20603;-85
2024/02/18 08:53:12;;;;;;;11.63;10.50;;;11.70;99.90;;;;;;4938486;28;20193;-85
2024/02/18 08:55:37;;;;;;;11.80;10.70;;;12.30;99.90;;;;;;4939498;28;20215;-86
2024/02/18 08:58:03;;;;;;;12.93;10.50;;;12.40;99.90;;;;;;4937786;28;20220;-86
2024/02/18 09:00:29;;;;;;;11.55;10.45;;;12.50;99.90;;;;;;4937808;28;20186;-85
2024/02/18 09:02:55;;;;;;;11.73;10.63;;;12.40;99.90;;;;;;4943240;28;20185;-86
2024/02/18 09:05:22;;;;;;;11.55;10.48;;;13.20;99.90;;;;;;4938752;28;20547;-87
2024/02/18 09:07:48;;;;;;;12.55;10.10;;;14.30;99.90;;;;;;4943890;28;20189;-86
2024/02/18 09:10:14;;;;;;;11.60;10.40;;;15.10;99.90;;;;;;4954827;29;20261;-87
2024/02/18 09:12:39;;;;;;;10.63;9.63;;;16.40;99.90;;;;;;4958498;28;20213;-87
2024/02/18 09:15:05;;;;;;;10.47;9.50;;;15.10;99.90;;;;;;4952482;29;20224;-85
2024/02/18 09:17:31;;;;;;;10.50;9.60;;;15.30;99.40;;;;;;4940304;28;20201;-87
2024/02/18 09:19:56;;;;;;;10.30;9.00;;;15.10;98.50;;;;;;4938099;28;20467;-87
2024/02/18 09:22:22;;;;;;;10.60;9.50;;;16.70;99.20;;;;;;4933098;28;20224;-85
2024/02/18 09:24:51;;;;;;;10.00;9.00;;;16.90;98.60;;;;;;4936096;28;20212;-86
2024/02/18 09:27:16;;;;;;;9.05;8.20;;;17.30;97.60;;;;;;4930927;29;20185;-85
2024/02/18 09:29:42;;;;;;;8.93;8.03;;;16.20;95.30;;;;;;4931568;28;20812;-87
2024/02/18 09:32:08;;;;;;;11.60;8.35;;;15.50;94.30;;;;;;4936637;29;20665;-86
2024/02/18 09:34:34;;;;;;;9.03;8.13;;;16.60;94.60;;;;;;4935211;28;20263;-86
2024/02/18 09:37:00;;;;;;;9.52;8.52;;;17.20;93.10;;;;;;4933883;28;20700;-86
2024/02/18 09:39:25;;;;;;;7.30;6.60;;;18.20;93.60;;;;;;4934086;29;20220;-86
2024/02/18 09:41:51;;;;;;;7.87;6.80;;;17.30;93.50;;;;;;4935111;28;20268;-86
2024/02/18 09:44:21;;;;;;;7.40;6.80;;;16.20;91.90;;;;;;4931473;29;20214;-86
2024/02/18 09:46:51;;;;;;;7.88;7.07;;;16.80;91.70;;;;;;4938107;28;20205;-86
2024/02/18 09:49:18;;;;;;;7.50;6.75;;;17.20;91.10;;;;;;4946402;28;20213;-86
2024/02/18 09:51:45;;;;;;;6.47;5.88;;;18.60;91.00;;;;;;4958199;28;20208;-86
2024/02/18 09:54:11;;;;;;;7.25;6.65;;;16.90;91.20;;;;;;4956620;28;20204;-86
2024/02/18 09:56:37;;;;;;;7.10;6.50;;;16.90;90.20;;;;;;4952451;28;20208;-86
2024/02/18 09:59:02;;;;;;;6.37;5.77;;;16.70;91.00;;;;;;4932808;29;20449;-86
2024/02/18 10:01:28;;;;;;;5.67;5.17;;;16.70;90.10;;;;;;4936578;28;20193;-86
2024/02/18 10:03:54;;;;;;;6.80;6.17;;;16.40;88.90;;;;;;4935510;28;20221;-86
2024/02/18 10:06:20;;;;;;;6.73;6.13;;;16.70;89.50;;;;;;4933989;28;20288;-86
2024/02/18 10:08:54;;;;;;;6.17;5.57;;;16.90;89.60;;;;;;4945325;28;20619;-87
2024/02/18 10:11:21;;;;;;;5.65;5.15;;;16.50;88.90;;;;;;4934116;29;20448;-86
2024/02/18 10:13:48;;;;;;;5.78;5.18;;;17.10;88.70;;;;;;4931317;28;20201;-86
2024/02/18 10:16:17;;;;;;;5.40;4.90;;;16.50;87.50;;;;;;4937256;28;20205;-87
2024/02/18 10:18:45;;;;;;;7.45;5.70;;;16.50;88.10;;;;;;4933841;28;20813;-86
2024/02/18 10:21:11;;;;;;;5.40;4.90;;;16.70;89.70;;;;;;4935968;28;20667;-86
2024/02/18 10:23:39;;;;;;;4.93;4.53;;;16.20;88.90;;;;;;4933886;28;20792;-86
2024/02/18 10:26:07;;;;;;;5.20;4.80;;;15.60;88.10;;;;;;4936374;28;20212;-86
2024/02/18 10:28:36;;;;;;;5.43;4.93;;;15.60;88.60;;;;;;4935551;28;20177;-86
2024/02/18 10:31:08;;;;;;;6.00;5.40;;;15.90;89.40;;;;;;4931231;29;20232;-86
2024/02/18 10:33:34;;;;;;;5.65;5.10;;;16.00;90.30;;;;;;4950311;28;20221;-86
2024/02/18 10:36:13;;;;;;;6.28;5.25;;;15.70;90.20;;;;;;4921483;28;20308;-85
2024/02/18 10:38:44;;;;;;;5.30;4.80;;;15.90;90.30;;;;;;4939484;28;20192;-85
2024/02/18 10:41:16;;;;;;;5.20;4.78;;;16.60;90.00;;;;;;4936856;28;20193;-86
2024/02/18 10:43:55;;;;;;;6.15;5.55;;;16.20;89.00;;;;;;4940156;28;20268;-86
2024/02/18 10:46:23;;;;;;;5.20;4.70;;;16.50;88.80;;;;;;4954380;29;20209;-86
2024/02/18 10:48:54;;;;;;;5.50;4.93;;;16.90;89.20;;;;;;4973581;28;20165;-86
2024/02/18 10:51:34;;;;;;;5.43;4.72;;;17.50;88.10;;;;;;4948457;29;20232;-86
2024/02/18 10:54:27;;;;;;;6.28;4.95;;;17.30;88.00;;;;;;4942750;29;20188;-86
2024/02/18 10:56:55;;;;;;;5.53;4.93;;;17.50;87.00;;;;;;4948415;28;20211;-86
2024/02/18 10:59:30;;;;;;;5.43;5.03;;;17.50;86.90;;;;;;4952694;28;20191;-86
2024/02/18 11:02:18;;;;;;;5.57;5.07;;;17.30;87.00;;;;;;4969343;28;20306;-86
2024/02/18 11:04:45;;;;;;;5.30;4.80;;;16.70;87.60;;;;;;4946058;28;20275;-86
2024/02/18 11:07:12;;;;;;;6.10;5.60;;;17.00;87.50;;;;;;4944022;29;20193;-86
2024/02/18 11:09:41;;;;;;;4.97;4.55;;;16.60;87.80;;;;;;4939621;28;20213;-86
2024/02/18 11:12:09;;;;;;;5.20;4.70;;;17.10;88.00;;;;;;4935053;29;20647;-86
2024/02/18 11:14:37;;;;;;;4.75;4.20;;;17.10;89.20;;;;;;4935590;28;20196;-86
2024/02/18 11:17:03;;;;;;;4.70;4.30;;;17.10;88.90;;;;;;4950261;28;20196;-85
2024/02/18 11:19:31;;;;;;;6.38;4.05;;;16.50;87.20;;;;;;4936005;28;20192;-86
2024/02/18 11:21:59;;;;;;;5.15;4.65;;;16.70;87.40;;;;;;4951657;28;20193;-86
2024/02/18 11:24:25;;;;;;;5.15;4.43;;;16.70;87.50;;;;;;4958340;28;20209;-86
2024/02/18 11:26:51;;;;;;;4.33;3.73;;;16.90;87.40;;;;;;4955069;28;20240;-85
2024/02/18 11:29:17;;;;;;;4.22;3.83;;;16.90;86.70;;;;;;4947305;29;20188;-85
2024/02/18 11:31:42;;;;;;;4.93;4.43;;;16.30;86.10;;;;;;4949804;28;20193;-86
2024/02/18 11:34:08;;;;;;;4.20;3.40;;;16.50;85.00;;;;;;4938924;28;20435;-86
2024/02/18 11:36:34;;;;;;;3.80;3.50;;;16.70;86.00;;;;;;4941126;28;20291;-86
2024/02/18 11:39:01;;;;;;;4.27;3.87;;;16.10;85.70;;;;;;4943543;28;20288;-86
2024/02/18 11:41:30;;;;;;;6.32;3.70;;;16.10;85.70;;;;;;4938667;28;20219;-87
2024/02/18 11:43:57;;;;;;;3.85;3.45;;;16.40;85.30;;;;;;4940735;28;20301;-87
2024/02/18 11:46:25;;;;;;;4.15;3.50;;;16.60;85.30;;;;;;4939865;28;20240;-86
2024/02/18 11:48:52;;;;;;;4.13;3.80;;;17.20;85.60;;;;;;4937618;28;20189;-85
2024/02/18 11:51:17;;;;;;;4.13;3.83;;;17.10;86.00;;;;;;4939426;28;20599;-85
2024/02/18 11:53:44;;;;;;;4.10;3.80;;;16.90;84.90;;;;;;4936435;28;20620;-85
2024/02/18 11:56:10;;;;;;;3.90;3.55;;;16.70;84.20;;;;;;4942510;28;20195;-85
2024/02/18 11:58:36;;;;;;;4.20;3.80;;;17.20;84.30;;;;;;4958449;28;20284;-86
2024/02/18 12:01:05;;;;;;;3.65;3.33;;;17.30;86.40;;;;;;4956550;28;20185;-85
2024/02/18 12:03:32;;;;;;;3.63;3.33;;;17.10;84.10;;;;;;4953879;28;20275;-85
2024/02/18 12:06:02;;;;;;;5.20;4.70;;;17.40;84.00;;;;;;4936725;28;20221;-85
2024/02/18 12:08:29;;;;;;;4.25;3.85;;;17.50;84.70;;;;;;4936914;29;20181;-86
2024/02/18 12:10:57;;;;;;;4.05;3.65;;;17.20;83.70;;;;;;4935832;29;20651;-86
2024/02/18 12:13:24;;;;;;;4.55;4.15;;;17.30;83.90;;;;;;4920040;28;20591;-86
2024/02/18 12:15:51;;;;;;;3.90;3.60;;;17.40;84.50;;;;;;4937708;28;20205;-86
2024/02/18 12:18:24;;;;;;;4.20;3.80;;;17.20;82.80;;;;;;4932815;29;20209;-86
2024/02/18 12:20:54;;;;;;;3.88;3.53;;;18.20;84.30;;;;;;4937895;28;20195;-86
2024/02/18 12:23:25;;;;;;;4.22;3.83;;;17.40;83.60;;;;;;4941313;29;20240;-86
2024/02/18 12:25:52;;;;;;;3.70;3.40;;;17.10;83.40;;;;;;4955621;28;20216;-86
2024/02/18 12:28:19;;;;;;;3.95;3.65;;;17.10;84.00;;;;;;4956059;28;20184;-86
2024/02/18 12:30:46;;;;;;;5.43;4.65;;;18.20;86.20;;;;;;4956445;28;20200;-86
2024/02/18 12:33:15;;;;;;;4.10;3.80;;;18.10;85.10;;;;;;4961291;29;20161;-86
2024/02/18 12:35:44;;;;;;;5.25;3.83;;;16.80;84.20;;;;;;4952222;28;20296;-86
2024/02/18 12:38:09;;;;;;;4.40;4.00;;;18.30;86.70;;;;;;4953999;29;20185;-86
2024/02/18 12:40:36;;;;;;;4.50;4.10;;;16.50;84.10;;;;;;4952968;28;20189;-86
2024/02/18 12:43:05;;;;;;;4.63;4.25;;;16.90;84.20;;;;;;4938216;28;20192;-86
2024/02/18 12:45:31;;;;;;;6.35;4.80;;;18.60;87.10;;;;;;4938378;29;20224;-86
2024/02/18 12:47:59;;;;;;;5.88;5.03;;;16.90;87.90;;;;;;4936274;28;20189;-86
2024/02/18 12:50:27;;;;;;;5.30;4.65;;;18.10;89.60;;;;;;4942668;28;20177;-86
2024/02/18 12:52:53;;;;;;;6.53;4.72;;;18.70;90.00;;;;;;4952672;28;20200;-88